METAR AND TAF INFORMATION
METAR FOR SCCI
ADDS - METARS form results

(0743 UTC 05 July 2020)
Data provider http://aviationweather.gov/metar/data/
 
METAR text: SCCI 050733Z AUTO 29003KT 9999 BKN011/// BKN014/// M03/M04 Q1020
Conditions at: SCCI (PUNTA ARENAS/PRE, CL) observed 0733 UTC 05 July 2020
Temperature: -3.0°C (27°F)
Dewpoint: -4.0°C (25°F) [RH = 93%]
Pressure (altimeter): 30.12 inches Hg (1020.0 mb)
Winds: from the WNW (290 degrees) at 3 MPH (3 knots; 1.5 m/s)
Visibility: 6 or more miles (10+ km)
Ceiling: 1100 feet AGL
Clouds: broken clouds at 1100 feet AGL
broken clouds at 1400 feet AGL
Weather: no significant weather observed at this time

METAR text: SCCI 050729Z AUTO 29002KT 9999 SCT012/// BKN014/// M03/M04 Q1020
Conditions at: SCCI (PUNTA ARENAS/PRE, CL) observed 0729 UTC 05 July 2020
Temperature: -3.0°C (27°F)
Dewpoint: -4.0°C (25°F) [RH = 93%]
Pressure (altimeter): 30.12 inches Hg (1020.0 mb)
Winds: from the WNW (290 degrees) at 2 MPH (2 knots; 1.0 m/s)
Visibility: 6 or more miles (10+ km)
Ceiling: 1400 feet AGL
Clouds: scattered clouds at 1200 feet AGL
broken clouds at 1400 feet AGL
Weather: no significant weather observed at this time

METAR text: SCCI 050700Z AUTO 29005KT CAVOK M04/M04 Q1020
Conditions at: SCCI (PUNTA ARENAS/PRE, CL) observed 0700 UTC 05 July 2020
Temperature: -4.0°C (25°F)
Dewpoint: -4.0°C (25°F) [RH = 100%]
Pressure (altimeter): 30.12 inches Hg (1020.0 mb)
Winds: from the WNW (290 degrees) at 6 MPH (5 knots; 2.6 m/s)
Visibility: 6 or more miles (10+ km)
Ceiling: ceiling and visibility are OK
Clouds: unknown
Weather: no significant weather observed at this time

Forecast for: SCCI (PUNTA ARENAS/PRE, CL)
Text: TAF SCCI 050406Z 0506/0606 36005KT 9999 FEW012 TX02/0518Z TNM03/0506Z
Forecast period: 0600 UTC 05 July 2020 to 0600 UTC 06 July 2020
Forecast type: FROM: standard forecast or significant change
Winds: from the N (360 degrees) at 6 MPH (5 knots; 2.6 m/s)
Visibility: 6 or more miles 10+ km)
Ceiling: at least 12,000 feet AGL
Clouds: few clouds at 1200 feet AGL
Weather: no significant weather forecast for this period
Text: PROB40
Forecast period: 0600 to 1300 UTC 05 July 2020
Forecast type: TEMPORARY: The following changes expected for less than half the time period
Visibility: 3 miles (5 km)
Ceiling: at least 12,000 feet AGL
Clouds: scattered clouds at 900 feet AGL
Weather: BR  (mist)

 AIRPORT MAP

 RUNWAY INFORMATION
Runway 01 Runway length 5504 ft Runway width 148 ft
Runway elevation 122 ft Runway displaced threshold 0 ft Runway heading 29
Runway 19 Runway length 5504 ft Runway width 148 ft
Runway elevation 110 ft Runway displaced threshold 0 ft Runway heading 209
Runway 07 Runway length 9154 ft Runway width 148 ft
Runway elevation 139 ft Runway displaced threshold 0 ft Runway heading 89
Runway 25 Runway length 9154 ft Runway width 148 ft
Runway elevation 112 ft Runway displaced threshold 0 ft Runway heading 269
Runway 12 Runway length 7875 ft Runway width 148 ft
Runway elevation 138 ft Runway displaced threshold 0 ft Runway heading 139
Runway 30 Runway length 7875 ft Runway width 148 ft
Runway elevation 112 ft Runway displaced threshold 0 ft Runway heading 319

 AIRPORT FREQUENCIES
Type APP Name PUNTA AREN Frequency 128.1 MHZ
Type GND Name GND Frequency 121.9 MHZ
Type RDO Name PUNTA AREN Frequency 664.9 MHZ
Type TWR Name PUNTA AREN Frequency 118.7 MHZ

 AIRPORT NEAR NAVIGATION AIDS
Type NDB Name Punta Arenas Frequency 300 KHZ
Type VOR-DME Name Punta Arenas Frequency 114100 KHZ
Type NDB Name Punta Arenas Frequency 270 KHZ





Powered by Virtual Airlines Manager